sensor_id;sensor_type;location;lat;lon;timestamp;P1;durP1;ratioP1;P2;durP2;ratioP2
9264;SDS011;4669;49.594;10.958;2023-03-01T05:25:41;20.83;;;17.17;;
9264;SDS011;4669;49.594;10.958;2023-03-01T05:30:43;22.70;;;16.97;;
9264;SDS011;4669;49.594;10.958;2023-03-01T05:35:45;23.57;;;17.13;;
9264;SDS011;4669;49.594;10.958;2023-03-01T05:40:50;21.50;;;16.40;;
9264;SDS011;4669;49.594;10.958;2023-03-01T05:45:51;21.43;;;17.23;;
9264;SDS011;4669;49.594;10.958;2023-03-01T05:50:53;20.60;;;16.20;;
9264;SDS011;4669;49.594;10.958;2023-03-01T05:55:57;23.20;;;17.97;;
9264;SDS011;4669;49.594;10.958;2023-03-01T06:00:59;26.27;;;18.80;;
9264;SDS011;4669;49.594;10.958;2023-03-01T06:06:01;24.13;;;17.90;;
9264;SDS011;4669;49.594;10.958;2023-03-01T06:11:04;22.07;;;17.97;;
9264;SDS011;4669;49.594;10.958;2023-03-01T06:16:07;22.27;;;17.43;;
9264;SDS011;4669;49.594;10.958;2023-03-01T06:21:10;24.80;;;18.47;;
9264;SDS011;4669;49.594;10.958;2023-03-01T06:26:13;22.90;;;18.20;;
9264;SDS011;4669;49.594;10.958;2023-03-01T06:31:15;21.43;;;17.23;;
9264;SDS011;4669;49.594;10.958;2023-03-01T06:36:17;22.10;;;17.37;;
9264;SDS011;4669;49.594;10.958;2023-03-01T06:41:22;25.27;;;18.43;;
9264;SDS011;4669;49.594;10.958;2023-03-01T06:46:24;26.53;;;18.23;;
9264;SDS011;4669;49.594;10.958;2023-03-01T06:51:26;23.53;;;18.97;;
9264;SDS011;4669;49.594;10.958;2023-03-01T06:56:29;25.87;;;18.70;;
9264;SDS011;4669;49.594;10.958;2023-03-01T07:01:31;21.47;;;17.63;;
9264;SDS011;4669;49.594;10.958;2023-03-01T07:06:33;24.97;;;18.13;;
9264;SDS011;4669;49.594;10.958;2023-03-01T07:11:37;25.23;;;18.57;;
9264;SDS011;4669;49.594;10.958;2023-03-01T07:16:38;25.03;;;18.13;;
9264;SDS011;4669;49.594;10.958;2023-03-01T07:21:40;20.07;;;16.67;;
9264;SDS011;4669;49.594;10.958;2023-03-01T07:26:44;25.30;;;19.57;;
9264;SDS011;4669;49.594;10.958;2023-03-01T07:31:49;24.90;;;19.20;;
9264;SDS011;4669;49.594;10.958;2023-03-01T07:36:51;25.70;;;19.03;;
9264;SDS011;4669;49.594;10.958;2023-03-01T07:41:54;24.20;;;17.40;;
9264;SDS011;4669;49.594;10.958;2023-03-01T07:46:56;25.47;;;18.33;;
9264;SDS011;4669;49.594;10.958;2023-03-01T07:51:58;24.50;;;18.57;;
9264;SDS011;4669;49.594;10.958;2023-03-01T07:57:01;25.57;;;19.07;;
9264;SDS011;4669;49.594;10.958;2023-03-01T08:02:03;26.83;;;19.00;;
9264;SDS011;4669;49.594;10.958;2023-03-01T08:07:05;22.50;;;18.13;;
9264;SDS011;4669;49.594;10.958;2023-03-01T08:12:09;22.90;;;17.50;;
9264;SDS011;4669;49.594;10.958;2023-03-01T08:17:13;27.57;;;18.00;;
9264;SDS011;4669;49.594;10.958;2023-03-01T08:22:15;21.90;;;16.90;;
9264;SDS011;4669;49.594;10.958;2023-03-01T08:27:18;25.30;;;18.27;;
9264;SDS011;4669;49.594;10.958;2023-03-01T08:32:21;21.63;;;17.07;;
9264;SDS011;4669;49.594;10.958;2023-03-01T08:37:23;23.98;;;17.92;;
9264;SDS011;4669;49.594;10.958;2023-03-01T08:42:26;27.30;;;19.57;;
9264;SDS011;4669;49.594;10.958;2023-03-01T08:47:28;28.53;;;20.00;;
9264;SDS011;4669;49.594;10.958;2023-03-01T08:52:31;23.10;;;18.13;;
9264;SDS011;4669;49.594;10.958;2023-03-01T08:57:35;21.33;;;16.90;;
9264;SDS011;4669;49.594;10.958;2023-03-01T09:02:37;23.57;;;17.50;;
9264;SDS011;4669;49.594;10.958;2023-03-01T09:07:39;21.42;;;15.73;;
9264;SDS011;4669;49.594;10.958;2023-03-01T09:12:43;26.98;;;18.23;;
9264;SDS011;4669;49.594;10.958;2023-03-01T09:17:45;20.98;;;17.15;;
9264;SDS011;4669;49.594;10.958;2023-03-01T09:22:47;22.08;;;17.17;;
9264;SDS011;4669;49.594;10.958;2023-03-01T09:27:51;23.98;;;17.15;;
9264;SDS011;4669;49.594;10.958;2023-03-01T09:32:55;23.40;;;16.13;;
9264;SDS011;4669;49.594;10.958;2023-03-01T09:37:57;22.75;;;15.77;;
9264;SDS011;4669;49.594;10.958;2023-03-01T09:43:02;20.33;;;15.98;;
9264;SDS011;4669;49.594;10.958;2023-03-01T09:48:09;24.17;;;16.52;;
9264;SDS011;4669;49.594;10.958;2023-03-01T09:53:18;24.08;;;15.73;;
9264;SDS011;4669;49.594;10.958;2023-03-01T09:58:29;23.25;;;15.88;;
9264;SDS011;4669;49.594;10.958;2023-03-01T10:03:41;18.63;;;14.80;;
9264;SDS011;4669;49.594;10.958;2023-03-01T10:08:48;18.13;;;14.38;;
9264;SDS011;4669;49.594;10.958;2023-03-01T10:13:58;22.00;;;15.02;;
9264;SDS011;4669;49.594;10.958;2023-03-01T10:19:04;20.95;;;15.38;;
9264;SDS011;4669;49.594;10.958;2023-03-01T10:24:08;20.00;;;14.75;;
9264;SDS011;4669;49.594;10.958;2023-03-01T10:29:15;18.40;;;13.63;;
9264;SDS011;4669;49.594;10.958;2023-03-01T10:34:18;19.02;;;13.95;;
9264;SDS011;4669;49.594;10.958;2023-03-01T10:39:24;17.35;;;13.75;;
9264;SDS011;4669;49.594;10.958;2023-03-01T10:49:52;19.35;;;13.25;;
9264;SDS011;4669;49.594;10.958;2023-03-01T10:54:59;18.13;;;12.77;;
9264;SDS011;4669;49.594;10.958;2023-03-01T11:00:19;18.45;;;12.55;;
9264;SDS011;4669;49.594;10.958;2023-03-01T11:05:25;20.58;;;12.77;;
9264;SDS011;4669;49.594;10.958;2023-03-01T11:10:29;19.38;;;13.52;;
9264;SDS011;4669;49.594;10.958;2023-03-01T11:15:35;19.80;;;13.65;;
9264;SDS011;4669;49.594;10.958;2023-03-01T11:20:37;18.88;;;13.70;;
9264;SDS011;4669;49.594;10.958;2023-03-01T11:25:41;18.00;;;13.45;;
9264;SDS011;4669;49.594;10.958;2023-03-01T11:30:47;21.50;;;14.45;;
9264;SDS011;4669;49.594;10.958;2023-03-01T11:35:55;18.98;;;13.35;;
9264;SDS011;4669;49.594;10.958;2023-03-01T11:41:04;19.80;;;13.00;;
9264;SDS011;4669;49.594;10.958;2023-03-01T11:51:40;17.13;;;12.32;;
9264;SDS011;4669;49.594;10.958;2023-03-01T11:56:46;18.55;;;11.32;;
9264;SDS011;4669;49.594;10.958;2023-03-01T12:01:57;18.88;;;12.45;;
9264;SDS011;4669;49.594;10.958;2023-03-01T12:07:18;22.88;;;13.57;;
9264;SDS011;4669;49.594;10.958;2023-03-01T12:12:26;18.55;;;13.80;;
9264;SDS011;4669;49.594;10.958;2023-03-01T12:17:46;19.23;;;13.38;;
9264;SDS011;4669;49.594;10.958;2023-03-01T12:23:29;17.88;;;12.63;;
9264;SDS011;4669;49.594;10.958;2023-03-01T12:34:31;17.58;;;12.93;;
9264;SDS011;4669;49.594;10.958;2023-03-01T12:39:52;18.80;;;12.57;;
9264;SDS011;4669;49.594;10.958;2023-03-01T12:45:19;17.20;;;12.00;;
9264;SDS011;4669;49.594;10.958;2023-03-01T12:50:38;19.58;;;12.35;;
9264;SDS011;4669;49.594;10.958;2023-03-01T12:55:43;17.77;;;12.00;;
9264;SDS011;4669;49.594;10.958;2023-03-01T13:00:45;19.33;;;12.25;;
9264;SDS011;4669;49.594;10.958;2023-03-01T13:06:07;17.55;;;12.98;;
9264;SDS011;4669;49.594;10.958;2023-03-01T13:11:15;21.05;;;14.65;;
9264;SDS011;4669;49.594;10.958;2023-03-01T13:16:20;20.50;;;13.85;;
9264;SDS011;4669;49.594;10.958;2023-03-01T13:21:41;21.17;;;13.40;;
9264;SDS011;4669;49.594;10.958;2023-03-01T13:32:19;20.65;;;14.68;;
9264;SDS011;4669;49.594;10.958;2023-03-01T13:42:40;19.48;;;13.90;;
9264;SDS011;4669;49.594;10.958;2023-03-01T13:47:46;18.85;;;14.27;;
9264;SDS011;4669;49.594;10.958;2023-03-01T13:52:52;17.23;;;13.95;;
9264;SDS011;4669;49.594;10.958;2023-03-01T13:58:00;20.98;;;14.25;;
9264;SDS011;4669;49.594;10.958;2023-03-01T14:03:08;17.05;;;14.40;;
9264;SDS011;4669;49.594;10.958;2023-03-01T14:08:21;15.75;;;13.40;;
9264;SDS011;4669;49.594;10.958;2023-03-01T14:13:30;18.15;;;13.52;;
9264;SDS011;4669;49.594;10.958;2023-03-01T14:18:43;20.13;;;14.18;;
9264;SDS011;4669;49.594;10.958;2023-03-01T14:23:54;19.15;;;12.60;;
9264;SDS011;4669;49.594;10.958;2023-03-01T14:28:57;15.77;;;11.88;;
9264;SDS011;4669;49.594;10.958;2023-03-01T14:33:59;15.95;;;12.00;;
9264;SDS011;4669;49.594;10.958;2023-03-01T14:39:15;15.77;;;11.50;;
9264;SDS011;4669;49.594;10.958;2023-03-01T14:44:19;18.02;;;12.35;;
9264;SDS011;4669;49.594;10.958;2023-03-01T14:49:25;33.38;;;22.23;;
9264;SDS011;4669;49.594;10.958;2023-03-01T14:54:35;14.65;;;10.25;;
9264;SDS011;4669;49.594;10.958;2023-03-01T14:59:42;13.15;;;10.18;;
9264;SDS011;4669;49.594;10.958;2023-03-01T15:04:44;13.27;;;10.65;;
9264;SDS011;4669;49.594;10.958;2023-03-01T15:09:49;16.17;;;12.65;;
9264;SDS011;4669;49.594;10.958;2023-03-01T15:14:51;16.08;;;12.45;;
9264;SDS011;4669;49.594;10.958;2023-03-01T15:19:54;16.92;;;11.27;;
9264;SDS011;4669;49.594;10.958;2023-03-01T15:24:58;15.02;;;11.35;;
9264;SDS011;4669;49.594;10.958;2023-03-01T15:30:00;14.27;;;10.82;;
9264;SDS011;4669;49.594;10.958;2023-03-01T15:40:48;15.82;;;10.82;;
9264;SDS011;4669;49.594;10.958;2023-03-01T15:45:55;16.95;;;11.50;;
9264;SDS011;4669;49.594;10.958;2023-03-01T15:50:58;16.60;;;10.98;;
9264;SDS011;4669;49.594;10.958;2023-03-01T15:56:03;16.17;;;11.05;;
9264;SDS011;4669;49.594;10.958;2023-03-01T16:01:08;15.60;;;12.38;;
9264;SDS011;4669;49.594;10.958;2023-03-01T16:06:13;19.20;;;12.50;;
9264;SDS011;4669;49.594;10.958;2023-03-01T16:11:17;18.70;;;11.65;;
9264;SDS011;4669;49.594;10.958;2023-03-01T16:16:20;18.30;;;13.48;;
9264;SDS011;4669;49.594;10.958;2023-03-01T16:21:23;15.55;;;11.85;;
9264;SDS011;4669;49.594;10.958;2023-03-01T16:26:27;17.83;;;11.95;;
9264;SDS011;4669;49.594;10.958;2023-03-01T16:31:29;18.73;;;12.63;;
9264;SDS011;4669;49.594;10.958;2023-03-01T16:36:31;16.55;;;13.13;;
9264;SDS011;4669;49.594;10.958;2023-03-01T16:41:35;17.63;;;13.23;;
9264;SDS011;4669;49.594;10.958;2023-03-01T16:46:37;16.73;;;13.30;;
9264;SDS011;4669;49.594;10.958;2023-03-01T16:51:39;19.20;;;14.57;;
9264;SDS011;4669;49.594;10.958;2023-03-01T16:56:43;16.42;;;13.07;;
9264;SDS011;4669;49.594;10.958;2023-03-01T17:01:45;20.13;;;14.10;;
9264;SDS011;4669;49.594;10.958;2023-03-01T17:06:47;17.85;;;13.82;;
9264;SDS011;4669;49.594;10.958;2023-03-01T17:11:51;25.15;;;18.70;;
9264;SDS011;4669;49.594;10.958;2023-03-01T17:16:54;24.05;;;15.23;;
9264;SDS011;4669;49.594;10.958;2023-03-01T17:21:56;22.10;;;14.63;;
9264;SDS011;4669;49.594;10.958;2023-03-01T17:26:59;18.25;;;15.10;;
9264;SDS011;4669;49.594;10.958;2023-03-01T17:32:01;21.55;;;16.25;;
9264;SDS011;4669;49.594;10.958;2023-03-01T17:37:04;22.83;;;15.98;;
9264;SDS011;4669;49.594;10.958;2023-03-01T17:42:07;20.35;;;16.63;;
9264;SDS011;4669;49.594;10.958;2023-03-01T17:47:09;25.95;;;17.92;;
9264;SDS011;4669;49.594;10.958;2023-03-01T17:52:11;24.38;;;18.20;;
9264;SDS011;4669;49.594;10.958;2023-03-01T17:57:15;22.08;;;17.40;;
9264;SDS011;4669;49.594;10.958;2023-03-01T18:02:17;23.33;;;17.65;;
9264;SDS011;4669;49.594;10.958;2023-03-01T18:07:19;27.27;;;18.83;;
9264;SDS011;4669;49.594;10.958;2023-03-01T18:12:22;21.90;;;16.95;;
9264;SDS011;4669;49.594;10.958;2023-03-01T18:17:25;24.73;;;18.83;;
9264;SDS011;4669;49.594;10.958;2023-03-01T18:22:27;26.55;;;18.83;;
9264;SDS011;4669;49.594;10.958;2023-03-01T18:27:30;25.88;;;19.67;;
9264;SDS011;4669;49.594;10.958;2023-03-01T18:32:33;26.60;;;18.90;;
9264;SDS011;4669;49.594;10.958;2023-03-01T18:37:35;25.13;;;19.50;;
9264;SDS011;4669;49.594;10.958;2023-03-01T18:42:39;29.02;;;20.58;;
9264;SDS011;4669;49.594;10.958;2023-03-01T18:47:41;26.15;;;20.63;;
9264;SDS011;4669;49.594;10.958;2023-03-01T18:52:43;24.88;;;19.58;;
9264;SDS011;4669;49.594;10.958;2023-03-01T18:57:46;26.48;;;20.60;;
9264;SDS011;4669;49.594;10.958;2023-03-01T19:02:48;26.67;;;20.52;;
9264;SDS011;4669;49.594;10.958;2023-03-01T19:07:50;26.00;;;20.48;;
9264;SDS011;4669;49.594;10.958;2023-03-01T19:12:53;25.48;;;20.67;;
9264;SDS011;4669;49.594;10.958;2023-03-01T19:17:55;28.83;;;21.48;;
9264;SDS011;4669;49.594;10.958;2023-03-01T19:22:58;26.02;;;21.00;;
9264;SDS011;4669;49.594;10.958;2023-03-01T19:28:01;26.95;;;21.33;;
9264;SDS011;4669;49.594;10.958;2023-03-01T19:33:03;26.20;;;19.83;;
9264;SDS011;4669;49.594;10.958;2023-03-01T19:38:05;39.30;;;26.52;;
9264;SDS011;4669;49.594;10.958;2023-03-01T19:43:09;27.23;;;20.45;;
9264;SDS011;4669;49.594;10.958;2023-03-01T19:48:11;26.30;;;19.83;;
9264;SDS011;4669;49.594;10.958;2023-03-01T19:53:13;26.98;;;20.23;;
9264;SDS011;4669;49.594;10.958;2023-03-01T19:58:18;27.10;;;20.73;;
9264;SDS011;4669;49.594;10.958;2023-03-01T20:03:20;26.38;;;20.35;;
9264;SDS011;4669;49.594;10.958;2023-03-01T20:08:22;26.00;;;20.17;;
9264;SDS011;4669;49.594;10.958;2023-03-01T20:13:26;30.52;;;21.85;;
9264;SDS011;4669;49.594;10.958;2023-03-01T20:18:28;28.15;;;21.10;;
9264;SDS011;4669;49.594;10.958;2023-03-01T20:23:30;29.63;;;22.52;;
9264;SDS011;4669;49.594;10.958;2023-03-01T20:28:34;31.40;;;21.40;;
9264;SDS011;4669;49.594;10.958;2023-03-01T20:33:37;31.58;;;23.15;;
9264;SDS011;4669;49.594;10.958;2023-03-01T20:38:40;29.50;;;22.02;;
9264;SDS011;4669;49.594;10.958;2023-03-01T20:43:44;30.08;;;22.15;;
9264;SDS011;4669;49.594;10.958;2023-03-01T20:48:52;30.30;;;23.00;;
9264;SDS011;4669;49.594;10.958;2023-03-01T20:53:54;28.10;;;21.45;;
9264;SDS011;4669;49.594;10.958;2023-03-01T20:58:58;31.33;;;22.48;;
9264;SDS011;4669;49.594;10.958;2023-03-01T21:04:01;34.03;;;23.83;;
9264;SDS011;4669;49.594;10.958;2023-03-01T21:09:03;42.17;;;27.17;;
9264;SDS011;4669;49.594;10.958;2023-03-01T21:14:07;34.60;;;23.75;;
9264;SDS011;4669;49.594;10.958;2023-03-01T21:19:11;30.70;;;23.20;;
9264;SDS011;4669;49.594;10.958;2023-03-01T21:24:13;31.55;;;22.77;;
9264;SDS011;4669;49.594;10.958;2023-03-01T21:29:16;31.27;;;23.33;;
9264;SDS011;4669;49.594;10.958;2023-03-01T21:34:18;30.77;;;22.70;;
9264;SDS011;4669;49.594;10.958;2023-03-01T21:39:20;32.83;;;23.75;;
9264;SDS011;4669;49.594;10.958;2023-03-01T21:44:29;30.85;;;22.10;;
9264;SDS011;4669;49.594;10.958;2023-03-01T21:49:32;30.60;;;22.70;;
9264;SDS011;4669;49.594;10.958;2023-03-01T21:54:34;29.65;;;22.88;;
9264;SDS011;4669;49.594;10.958;2023-03-01T21:59:38;29.65;;;22.38;;
9264;SDS011;4669;49.594;10.958;2023-03-01T22:04:40;31.10;;;21.58;;
9264;SDS011;4669;49.594;10.958;2023-03-01T22:09:42;33.08;;;22.67;;
9264;SDS011;4669;49.594;10.958;2023-03-01T22:14:45;32.13;;;22.55;;
9264;SDS011;4669;49.594;10.958;2023-03-01T22:19:47;31.92;;;21.50;;
9264;SDS011;4669;49.594;10.958;2023-03-01T22:24:49;27.33;;;21.55;;
9264;SDS011;4669;49.594;10.958;2023-03-01T22:29:52;28.45;;;21.20;;
9264;SDS011;4669;49.594;10.958;2023-03-01T22:34:54;29.30;;;21.73;;
9264;SDS011;4669;49.594;10.958;2023-03-01T22:39:56;29.20;;;21.65;;
9264;SDS011;4669;49.594;10.958;2023-03-01T22:44:59;27.25;;;19.92;;
9264;SDS011;4669;49.594;10.958;2023-03-01T22:50:02;30.05;;;20.88;;
9264;SDS011;4669;49.594;10.958;2023-03-01T22:55:05;27.48;;;21.55;;
